sensor_id;sensor_type;location;lat;lon;timestamp;P1;durP1;ratioP1;P2;durP2;ratioP2
7233;SDS011;3658;47.992;10.158;2023-07-31T00:01:44;1.20;;;1.10;;
7233;SDS011;3658;47.992;10.158;2023-07-31T00:04:11;1.30;;;1.20;;
7233;SDS011;3658;47.992;10.158;2023-07-31T00:06:38;1.30;;;1.20;;
7233;SDS011;3658;47.992;10.158;2023-07-31T00:09:06;1.20;;;1.10;;
7233;SDS011;3658;47.992;10.158;2023-07-31T00:11:32;1.30;;;1.20;;
7233;SDS011;3658;47.992;10.158;2023-07-31T00:13:59;1.30;;;1.20;;
7233;SDS011;3658;47.992;10.158;2023-07-31T00:16:26;1.23;;;1.10;;
7233;SDS011;3658;47.992;10.158;2023-07-31T00:18:53;1.20;;;1.10;;
7233;SDS011;3658;47.992;10.158;2023-07-31T00:21:25;1.30;;;1.20;;
7233;SDS011;3658;47.992;10.158;2023-07-31T00:23:52;1.23;;;1.13;;
7233;SDS011;3658;47.992;10.158;2023-07-31T00:26:20;1.23;;;1.13;;
7233;SDS011;3658;47.992;10.158;2023-07-31T00:28:47;1.40;;;1.30;;
7233;SDS011;3658;47.992;10.158;2023-07-31T00:31:14;1.20;;;1.10;;
7233;SDS011;3658;47.992;10.158;2023-07-31T00:33:41;1.33;;;1.23;;
7233;SDS011;3658;47.992;10.158;2023-07-31T00:36:07;1.20;;;1.10;;
7233;SDS011;3658;47.992;10.158;2023-07-31T00:38:34;1.20;;;1.10;;
7233;SDS011;3658;47.992;10.158;2023-07-31T00:41:01;1.30;;;1.20;;
7233;SDS011;3658;47.992;10.158;2023-07-31T00:43:29;1.00;;;1.00;;
7233;SDS011;3658;47.992;10.158;2023-07-31T00:45:56;1.40;;;1.30;;
7233;SDS011;3658;47.992;10.158;2023-07-31T00:48:23;1.30;;;1.20;;
7233;SDS011;3658;47.992;10.158;2023-07-31T00:50:50;1.40;;;1.20;;
7233;SDS011;3658;47.992;10.158;2023-07-31T00:53:17;2.30;;;1.33;;
7233;SDS011;3658;47.992;10.158;2023-07-31T00:55:44;1.17;;;1.07;;
7233;SDS011;3658;47.992;10.158;2023-07-31T00:58:11;1.37;;;1.27;;
7233;SDS011;3658;47.992;10.158;2023-07-31T01:00:39;1.10;;;1.00;;
7233;SDS011;3658;47.992;10.158;2023-07-31T01:03:06;1.30;;;1.20;;
7233;SDS011;3658;47.992;10.158;2023-07-31T01:05:36;1.00;;;1.00;;
7233;SDS011;3658;47.992;10.158;2023-07-31T01:08:10;1.10;;;1.10;;
7233;SDS011;3658;47.992;10.158;2023-07-31T01:10:44;1.33;;;1.23;;
7233;SDS011;3658;47.992;10.158;2023-07-31T01:13:17;1.10;;;1.10;;
7233;SDS011;3658;47.992;10.158;2023-07-31T01:15:46;1.00;;;1.00;;
7233;SDS011;3658;47.992;10.158;2023-07-31T01:18:13;1.40;;;1.30;;
7233;SDS011;3658;47.992;10.158;2023-07-31T01:20:40;1.27;;;1.17;;
7233;SDS011;3658;47.992;10.158;2023-07-31T01:23:15;1.20;;;1.10;;
7233;SDS011;3658;47.992;10.158;2023-07-31T01:26:11;1.13;;;1.10;;
7233;SDS011;3658;47.992;10.158;2023-07-31T01:28:42;1.13;;;1.10;;
7233;SDS011;3658;47.992;10.158;2023-07-31T01:31:18;1.10;;;1.00;;
7233;SDS011;3658;47.992;10.158;2023-07-31T01:33:47;1.20;;;1.10;;
7233;SDS011;3658;47.992;10.158;2023-07-31T01:36:15;1.00;;;1.00;;
7233;SDS011;3658;47.992;10.158;2023-07-31T01:38:42;1.20;;;1.10;;
7233;SDS011;3658;47.992;10.158;2023-07-31T01:41:10;1.13;;;1.13;;
7233;SDS011;3658;47.992;10.158;2023-07-31T01:43:38;1.17;;;1.03;;
7233;SDS011;3658;47.992;10.158;2023-07-31T01:46:05;1.00;;;1.00;;
7233;SDS011;3658;47.992;10.158;2023-07-31T01:48:32;1.30;;;1.20;;
7233;SDS011;3658;47.992;10.158;2023-07-31T01:51:00;1.00;;;1.00;;
7233;SDS011;3658;47.992;10.158;2023-07-31T01:53:28;1.00;;;0.97;;
7233;SDS011;3658;47.992;10.158;2023-07-31T01:55:55;1.03;;;1.00;;
7233;SDS011;3658;47.992;10.158;2023-07-31T01:58:23;1.30;;;1.20;;
7233;SDS011;3658;47.992;10.158;2023-07-31T02:00:49;1.23;;;1.13;;
7233;SDS011;3658;47.992;10.158;2023-07-31T02:03:16;1.20;;;1.10;;
7233;SDS011;3658;47.992;10.158;2023-07-31T02:05:44;1.17;;;1.10;;
7233;SDS011;3658;47.992;10.158;2023-07-31T02:08:11;0.90;;;0.90;;
7233;SDS011;3658;47.992;10.158;2023-07-31T02:10:37;1.23;;;1.13;;
7233;SDS011;3658;47.992;10.158;2023-07-31T02:13:04;1.10;;;1.00;;
7233;SDS011;3658;47.992;10.158;2023-07-31T02:15:32;1.00;;;1.00;;
7233;SDS011;3658;47.992;10.158;2023-07-31T02:17:59;1.00;;;1.00;;
7233;SDS011;3658;47.992;10.158;2023-07-31T02:20:26;1.40;;;1.30;;
7233;SDS011;3658;47.992;10.158;2023-07-31T02:22:53;1.00;;;1.00;;
7233;SDS011;3658;47.992;10.158;2023-07-31T02:25:20;1.17;;;1.07;;
7233;SDS011;3658;47.992;10.158;2023-07-31T02:27:46;1.30;;;1.20;;
7233;SDS011;3658;47.992;10.158;2023-07-31T02:30:13;1.20;;;1.10;;
7233;SDS011;3658;47.992;10.158;2023-07-31T02:32:41;1.00;;;1.00;;
7233;SDS011;3658;47.992;10.158;2023-07-31T02:35:08;0.90;;;0.90;;
7233;SDS011;3658;47.992;10.158;2023-07-31T02:37:36;1.73;;;1.10;;
7233;SDS011;3658;47.992;10.158;2023-07-31T02:40:04;1.10;;;1.00;;
7233;SDS011;3658;47.992;10.158;2023-07-31T02:42:31;1.10;;;1.00;;
7233;SDS011;3658;47.992;10.158;2023-07-31T02:44:58;1.10;;;1.00;;
7233;SDS011;3658;47.992;10.158;2023-07-31T02:47:25;1.00;;;1.00;;
7233;SDS011;3658;47.992;10.158;2023-07-31T02:49:53;1.00;;;1.00;;
7233;SDS011;3658;47.992;10.158;2023-07-31T02:52:21;1.07;;;1.00;;
7233;SDS011;3658;47.992;10.158;2023-07-31T02:54:47;1.07;;;1.00;;
7233;SDS011;3658;47.992;10.158;2023-07-31T02:57:14;1.23;;;1.10;;
7233;SDS011;3658;47.992;10.158;2023-07-31T02:59:41;1.00;;;1.00;;
7233;SDS011;3658;47.992;10.158;2023-07-31T03:02:08;1.00;;;1.00;;
7233;SDS011;3658;47.992;10.158;2023-07-31T03:04:35;0.90;;;0.90;;
7233;SDS011;3658;47.992;10.158;2023-07-31T03:07:04;0.93;;;0.93;;
7233;SDS011;3658;47.992;10.158;2023-07-31T03:09:31;0.80;;;0.80;;
7233;SDS011;3658;47.992;10.158;2023-07-31T03:11:58;1.20;;;1.10;;
7233;SDS011;3658;47.992;10.158;2023-07-31T03:14:24;0.90;;;0.90;;
7233;SDS011;3658;47.992;10.158;2023-07-31T03:16:52;1.20;;;1.10;;
7233;SDS011;3658;47.992;10.158;2023-07-31T03:19:19;1.37;;;1.10;;
7233;SDS011;3658;47.992;10.158;2023-07-31T03:21:46;1.10;;;1.10;;
7233;SDS011;3658;47.992;10.158;2023-07-31T03:24:14;1.10;;;1.00;;
7233;SDS011;3658;47.992;10.158;2023-07-31T03:26:41;1.17;;;1.07;;
7233;SDS011;3658;47.992;10.158;2023-07-31T03:29:07;1.27;;;1.17;;
7233;SDS011;3658;47.992;10.158;2023-07-31T03:31:34;1.13;;;1.03;;
7233;SDS011;3658;47.992;10.158;2023-07-31T03:34:01;0.97;;;0.97;;
7233;SDS011;3658;47.992;10.158;2023-07-31T03:36:28;1.17;;;1.07;;
7233;SDS011;3658;47.992;10.158;2023-07-31T03:38:55;1.00;;;1.00;;
7233;SDS011;3658;47.992;10.158;2023-07-31T03:41:23;1.10;;;1.00;;
7233;SDS011;3658;47.992;10.158;2023-07-31T03:43:50;0.90;;;0.90;;
7233;SDS011;3658;47.992;10.158;2023-07-31T03:46:17;1.00;;;1.00;;
7233;SDS011;3658;47.992;10.158;2023-07-31T03:48:44;1.00;;;1.00;;
7233;SDS011;3658;47.992;10.158;2023-07-31T03:51:11;0.87;;;0.87;;
7233;SDS011;3658;47.992;10.158;2023-07-31T03:53:38;1.03;;;1.00;;
7233;SDS011;3658;47.992;10.158;2023-07-31T03:56:05;0.90;;;0.90;;
7233;SDS011;3658;47.992;10.158;2023-07-31T03:58:33;0.80;;;0.80;;
7233;SDS011;3658;47.992;10.158;2023-07-31T04:01:00;0.97;;;0.97;;
7233;SDS011;3658;47.992;10.158;2023-07-31T04:03:26;0.90;;;0.90;;
7233;SDS011;3658;47.992;10.158;2023-07-31T04:05:53;0.80;;;0.80;;
7233;SDS011;3658;47.992;10.158;2023-07-31T04:08:21;0.90;;;0.90;;
7233;SDS011;3658;47.992;10.158;2023-07-31T04:10:48;0.97;;;0.97;;
7233;SDS011;3658;47.992;10.158;2023-07-31T04:13:14;1.20;;;1.10;;
7233;SDS011;3658;47.992;10.158;2023-07-31T04:15:43;0.90;;;0.90;;
7233;SDS011;3658;47.992;10.158;2023-07-31T04:18:14;0.90;;;0.90;;
7233;SDS011;3658;47.992;10.158;2023-07-31T04:20:41;0.90;;;0.90;;
7233;SDS011;3658;47.992;10.158;2023-07-31T04:23:08;1.00;;;1.00;;
7233;SDS011;3658;47.992;10.158;2023-07-31T04:25:35;1.00;;;1.00;;
7233;SDS011;3658;47.992;10.158;2023-07-31T04:28:01;1.00;;;1.00;;
7233;SDS011;3658;47.992;10.158;2023-07-31T04:30:28;0.90;;;0.90;;
7233;SDS011;3658;47.992;10.158;2023-07-31T04:32:56;1.00;;;0.90;;
7233;SDS011;3658;47.992;10.158;2023-07-31T04:35:23;0.97;;;0.97;;
7233;SDS011;3658;47.992;10.158;2023-07-31T04:37:50;1.00;;;1.00;;
7233;SDS011;3658;47.992;10.158;2023-07-31T04:40:16;0.90;;;0.90;;
7233;SDS011;3658;47.992;10.158;2023-07-31T04:42:43;1.07;;;1.07;;
7233;SDS011;3658;47.992;10.158;2023-07-31T04:45:11;0.80;;;0.80;;
7233;SDS011;3658;47.992;10.158;2023-07-31T04:47:38;0.90;;;0.90;;
7233;SDS011;3658;47.992;10.158;2023-07-31T04:50:06;0.87;;;0.87;;
7233;SDS011;3658;47.992;10.158;2023-07-31T04:52:34;1.00;;;1.00;;
7233;SDS011;3658;47.992;10.158;2023-07-31T04:55:00;1.00;;;1.00;;
7233;SDS011;3658;47.992;10.158;2023-07-31T04:57:28;0.80;;;0.80;;
7233;SDS011;3658;47.992;10.158;2023-07-31T04:59:54;0.90;;;0.90;;
7233;SDS011;3658;47.992;10.158;2023-07-31T05:02:21;0.97;;;0.97;;
7233;SDS011;3658;47.992;10.158;2023-07-31T05:04:49;0.90;;;0.90;;
7233;SDS011;3658;47.992;10.158;2023-07-31T05:07:17;0.90;;;0.90;;
7233;SDS011;3658;47.992;10.158;2023-07-31T05:09:44;1.00;;;1.00;;
7233;SDS011;3658;47.992;10.158;2023-07-31T05:12:11;0.90;;;0.90;;
7233;SDS011;3658;47.992;10.158;2023-07-31T05:14:38;1.00;;;0.90;;
7233;SDS011;3658;47.992;10.158;2023-07-31T05:17:04;0.87;;;0.87;;
7233;SDS011;3658;47.992;10.158;2023-07-31T05:19:31;0.70;;;0.70;;
7233;SDS011;3658;47.992;10.158;2023-07-31T05:21:58;0.90;;;0.90;;
7233;SDS011;3658;47.992;10.158;2023-07-31T05:24:26;0.90;;;0.90;;
7233;SDS011;3658;47.992;10.158;2023-07-31T05:26:53;0.80;;;0.80;;
7233;SDS011;3658;47.992;10.158;2023-07-31T05:29:20;0.80;;;0.80;;
7233;SDS011;3658;47.992;10.158;2023-07-31T05:31:46;0.87;;;0.87;;
7233;SDS011;3658;47.992;10.158;2023-07-31T05:34:13;0.90;;;0.90;;
7233;SDS011;3658;47.992;10.158;2023-07-31T05:36:40;1.00;;;1.00;;
7233;SDS011;3658;47.992;10.158;2023-07-31T05:39:07;0.80;;;0.80;;
7233;SDS011;3658;47.992;10.158;2023-07-31T05:41:35;0.90;;;0.90;;
7233;SDS011;3658;47.992;10.158;2023-07-31T05:44:02;1.80;;;1.30;;
7233;SDS011;3658;47.992;10.158;2023-07-31T05:46:29;1.67;;;1.33;;
7233;SDS011;3658;47.992;10.158;2023-07-31T05:48:57;1.37;;;1.23;;
7233;SDS011;3658;47.992;10.158;2023-07-31T05:51:25;2.97;;;1.30;;
7233;SDS011;3658;47.992;10.158;2023-07-31T05:53:52;3.37;;;1.20;;
7233;SDS011;3658;47.992;10.158;2023-07-31T05:56:19;1.50;;;1.40;;
7233;SDS011;3658;47.992;10.158;2023-07-31T05:58:47;1.43;;;1.20;;
7233;SDS011;3658;47.992;10.158;2023-07-31T06:01:15;1.30;;;1.20;;
7233;SDS011;3658;47.992;10.158;2023-07-31T06:03:42;4.30;;;1.50;;
7233;SDS011;3658;47.992;10.158;2023-07-31T06:06:08;2.63;;;1.40;;
7233;SDS011;3658;47.992;10.158;2023-07-31T06:08:36;3.40;;;1.50;;
7233;SDS011;3658;47.992;10.158;2023-07-31T06:11:02;2.70;;;1.57;;
7233;SDS011;3658;47.992;10.158;2023-07-31T06:13:29;1.70;;;1.47;;
7233;SDS011;3658;47.992;10.158;2023-07-31T06:15:57;1.60;;;1.20;;
7233;SDS011;3658;47.992;10.158;2023-07-31T06:18:25;1.40;;;1.30;;
7233;SDS011;3658;47.992;10.158;2023-07-31T06:20:52;2.17;;;1.23;;
7233;SDS011;3658;47.992;10.158;2023-07-31T06:23:18;2.77;;;1.40;;
7233;SDS011;3658;47.992;10.158;2023-07-31T06:25:45;3.30;;;1.27;;
7233;SDS011;3658;47.992;10.158;2023-07-31T06:28:12;2.67;;;1.30;;
7233;SDS011;3658;47.992;10.158;2023-07-31T06:30:39;1.53;;;1.30;;
7233;SDS011;3658;47.992;10.158;2023-07-31T06:33:07;1.70;;;1.30;;
7233;SDS011;3658;47.992;10.158;2023-07-31T06:35:35;1.40;;;1.30;;
7233;SDS011;3658;47.992;10.158;2023-07-31T06:38:01;2.37;;;1.40;;
7233;SDS011;3658;47.992;10.158;2023-07-31T06:40:28;2.07;;;1.07;;
7233;SDS011;3658;47.992;10.158;2023-07-31T06:42:55;5.30;;;1.40;;
7233;SDS011;3658;47.992;10.158;2023-07-31T06:45:22;4.23;;;1.60;;
7233;SDS011;3658;47.992;10.158;2023-07-31T06:47:49;1.30;;;1.20;;
7233;SDS011;3658;47.992;10.158;2023-07-31T06:50:17;1.53;;;1.23;;
7233;SDS011;3658;47.992;10.158;2023-07-31T06:52:43;2.17;;;1.30;;
7233;SDS011;3658;47.992;10.158;2023-07-31T06:55:17;2.87;;;1.40;;
7233;SDS011;3658;47.992;10.158;2023-07-31T06:57:45;2.30;;;1.67;;
7233;SDS011;3658;47.992;10.158;2023-07-31T07:00:12;3.53;;;1.50;;
7233;SDS011;3658;47.992;10.158;2023-07-31T07:02:39;2.80;;;1.50;;
7233;SDS011;3658;47.992;10.158;2023-07-31T07:05:06;3.27;;;1.40;;
7233;SDS011;3658;47.992;10.158;2023-07-31T07:07:35;1.50;;;1.40;;
7233;SDS011;3658;47.992;10.158;2023-07-31T07:10:02;1.43;;;1.27;;
7233;SDS011;3658;47.992;10.158;2023-07-31T07:12:30;2.40;;;1.53;;
7233;SDS011;3658;47.992;10.158;2023-07-31T07:14:58;1.63;;;1.20;;
7233;SDS011;3658;47.992;10.158;2023-07-31T07:17:24;1.47;;;1.20;;
7233;SDS011;3658;47.992;10.158;2023-07-31T07:19:52;1.60;;;1.10;;
7233;SDS011;3658;47.992;10.158;2023-07-31T07:22:19;6.37;;;1.50;;
7233;SDS011;3658;47.992;10.158;2023-07-31T07:24:47;6.03;;;1.30;;
7233;SDS011;3658;47.992;10.158;2023-07-31T07:27:13;4.73;;;1.40;;
7233;SDS011;3658;47.992;10.158;2023-07-31T07:29:40;2.43;;;1.30;;
7233;SDS011;3658;47.992;10.158;2023-07-31T07:32:07;2.47;;;1.47;;
7233;SDS011;3658;47.992;10.158;2023-07-31T07:34:34;2.13;;;1.50;;
7233;SDS011;3658;47.992;10.158;2023-07-31T07:37:01;3.97;;;1.50;;
7233;SDS011;3658;47.992;10.158;2023-07-31T07:39:28;2.33;;;1.40;;
7233;SDS011;3658;47.992;10.158;2023-07-31T07:41:56;5.47;;;1.60;;
7233;SDS011;3658;47.992;10.158;2023-07-31T07:44:23;4.00;;;1.40;;
7233;SDS011;3658;47.992;10.158;2023-07-31T07:46:49;1.60;;;1.40;;
7233;SDS011;3658;47.992;10.158;2023-07-31T07:49:16;1.93;;;1.43;;
7233;SDS011;3658;47.992;10.158;2023-07-31T07:51:43;1.60;;;1.30;;
7233;SDS011;3658;47.992;10.158;2023-07-31T07:54:10;5.73;;;1.70;;
7233;SDS011;3658;47.992;10.158;2023-07-31T07:56:36;2.93;;;1.53;;
7233;SDS011;3658;47.992;10.158;2023-07-31T07:59:05;3.30;;;1.37;;
7233;SDS011;3658;47.992;10.158;2023-07-31T08:01:32;2.70;;;1.80;;
7233;SDS011;3658;47.992;10.158;2023-07-31T08:03:59;3.70;;;1.63;;
7233;SDS011;3658;47.992;10.158;2023-07-31T08:06:26;1.83;;;1.50;;
7233;SDS011;3658;47.992;10.158;2023-07-31T08:08:54;2.53;;;1.43;;
7233;SDS011;3658;47.992;10.158;2023-07-31T08:11:21;5.53;;;1.50;;
7233;SDS011;3658;47.992;10.158;2023-07-31T08:13:48;2.03;;;1.33;;
7233;SDS011;3658;47.992;10.158;2023-07-31T08:16:16;6.63;;;2.20;;
7233;SDS011;3658;47.992;10.158;2023-07-31T08:18:43;4.23;;;1.53;;
7233;SDS011;3658;47.992;10.158;2023-07-31T08:21:10;5.97;;;1.73;;
7233;SDS011;3658;47.992;10.158;2023-07-31T08:23:37;3.23;;;1.60;;
7233;SDS011;3658;47.992;10.158;2023-07-31T08:26:03;3.30;;;1.63;;
7233;SDS011;3658;47.992;10.158;2023-07-31T08:28:30;2.47;;;1.30;;
7233;SDS011;3658;47.992;10.158;2023-07-31T08:30:57;3.07;;;1.60;;
7233;SDS011;3658;47.992;10.158;2023-07-31T08:33:25;3.67;;;1.43;;
7233;SDS011;3658;47.992;10.158;2023-07-31T08:35:52;1.70;;;1.30;;
7233;SDS011;3658;47.992;10.158;2023-07-31T08:38:18;1.53;;;1.27;;
7233;SDS011;3658;47.992;10.158;2023-07-31T08:40:46;3.33;;;1.50;;
7233;SDS011;3658;47.992;10.158;2023-07-31T08:43:12;1.57;;;1.30;;
7233;SDS011;3658;47.992;10.158;2023-07-31T08:45:41;2.60;;;1.20;;
7233;SDS011;3658;47.992;10.158;2023-07-31T08:48:08;4.00;;;1.50;;
7233;SDS011;3658;47.992;10.158;2023-07-31T08:50:37;3.37;;;1.40;;
7233;SDS011;3658;47.992;10.158;2023-07-31T08:53:04;4.17;;;1.30;;
7233;SDS011;3658;47.992;10.158;2023-07-31T08:55:32;6.83;;;1.50;;
7233;SDS011;3658;47.992;10.158;2023-07-31T08:57:59;1.97;;;1.10;;
7233;SDS011;3658;47.992;10.158;2023-07-31T09:00:28;1.60;;;1.27;;
7233;SDS011;3658;47.992;10.158;2023-07-31T09:02:57;2.50;;;1.57;;
7233;SDS011;3658;47.992;10.158;2023-07-31T09:05:26;3.90;;;1.40;;
7233;SDS011;3658;47.992;10.158;2023-07-31T09:07:57;1.30;;;1.20;;
7233;SDS011;3658;47.992;10.158;2023-07-31T09:10:24;1.83;;;1.33;;
7233;SDS011;3658;47.992;10.158;2023-07-31T09:12:51;2.33;;;1.30;;
7233;SDS011;3658;47.992;10.158;2023-07-31T09:15:19;2.33;;;1.30;;
7233;SDS011;3658;47.992;10.158;2023-07-31T09:17:46;2.90;;;1.37;;
7233;SDS011;3658;47.992;10.158;2023-07-31T09:20:14;3.73;;;1.30;;
7233;SDS011;3658;47.992;10.158;2023-07-31T09:22:41;4.07;;;1.50;;
7233;SDS011;3658;47.992;10.158;2023-07-31T09:25:17;4.50;;;1.33;;
7233;SDS011;3658;47.992;10.158;2023-07-31T09:27:48;3.37;;;1.30;;
7233;SDS011;3658;47.992;10.158;2023-07-31T09:30:16;4.77;;;1.53;;
7233;SDS011;3658;47.992;10.158;2023-07-31T09:32:44;2.20;;;1.30;;
7233;SDS011;3658;47.992;10.158;2023-07-31T09:35:16;3.53;;;1.57;;
7233;SDS011;3658;47.992;10.158;2023-07-31T09:37:49;2.50;;;1.30;;
7233;SDS011;3658;47.992;10.158;2023-07-31T09:43:00;1.97;;;1.30;;
7233;SDS011;3658;47.992;10.158;2023-07-31T09:45:28;3.83;;;1.40;;
7233;SDS011;3658;47.992;10.158;2023-07-31T09:47:56;1.40;;;1.30;;
7233;SDS011;3658;47.992;10.158;2023-07-31T09:50:24;3.23;;;1.60;;
7233;SDS011;3658;47.992;10.158;2023-07-31T09:52:51;1.67;;;1.40;;
7233;SDS011;3658;47.992;10.158;2023-07-31T09:55:19;5.27;;;1.73;;
7233;SDS011;3658;47.992;10.158;2023-07-31T09:57:47;2.27;;;1.37;;
7233;SDS011;3658;47.992;10.158;2023-07-31T10:00:15;3.10;;;1.37;;
7233;SDS011;3658;47.992;10.158;2023-07-31T10:02:45;2.50;;;1.67;;
7233;SDS011;3658;47.992;10.158;2023-07-31T10:05:13;1.40;;;1.30;;
7233;SDS011;3658;47.992;10.158;2023-07-31T10:07:42;3.00;;;1.40;;
7233;SDS011;3658;47.992;10.158;2023-07-31T10:10:11;3.70;;;1.53;;
7233;SDS011;3658;47.992;10.158;2023-07-31T10:12:41;3.90;;;1.47;;
7233;SDS011;3658;47.992;10.158;2023-07-31T10:15:11;3.87;;;1.50;;
7233;SDS011;3658;47.992;10.158;2023-07-31T10:17:39;1.40;;;1.30;;
7233;SDS011;3658;47.992;10.158;2023-07-31T10:20:06;1.43;;;1.17;;
7233;SDS011;3658;47.992;10.158;2023-07-31T10:22:35;2.43;;;1.40;;
7233;SDS011;3658;47.992;10.158;2023-07-31T10:25:02;2.47;;;1.23;;
7233;SDS011;3658;47.992;10.158;2023-07-31T10:27:30;1.90;;;1.40;;
7233;SDS011;3658;47.992;10.158;2023-07-31T10:29:57;1.37;;;1.20;;
7233;SDS011;3658;47.992;10.158;2023-07-31T10:32:28;1.40;;;1.30;;
7233;SDS011;3658;47.992;10.158;2023-07-31T10:34:55;1.47;;;1.37;;
7233;SDS011;3658;47.992;10.158;2023-07-31T10:37:22;1.80;;;1.40;;
7233;SDS011;3658;47.992;10.158;2023-07-31T10:39:57;3.03;;;1.60;;
7233;SDS011;3658;47.992;10.158;2023-07-31T10:42:33;3.13;;;2.00;;
7233;SDS011;3658;47.992;10.158;2023-07-31T10:45:01;1.90;;;1.70;;
7233;SDS011;3658;47.992;10.158;2023-07-31T10:47:32;2.57;;;2.00;;
7233;SDS011;3658;47.992;10.158;2023-07-31T10:50:16;3.10;;;1.90;;
7233;SDS011;3658;47.992;10.158;2023-07-31T10:52:48;3.00;;;1.97;;
7233;SDS011;3658;47.992;10.158;2023-07-31T10:55:16;3.77;;;2.17;;
7233;SDS011;3658;47.992;10.158;2023-07-31T10:57:53;2.13;;;1.80;;
7233;SDS011;3658;47.992;10.158;2023-07-31T11:00:21;2.03;;;1.80;;
7233;SDS011;3658;47.992;10.158;2023-07-31T11:02:58;4.30;;;2.10;;
7233;SDS011;3658;47.992;10.158;2023-07-31T11:08:19;2.33;;;1.80;;
7233;SDS011;3658;47.992;10.158;2023-07-31T11:10:48;4.13;;;2.20;;
7233;SDS011;3658;47.992;10.158;2023-07-31T11:13:16;5.13;;;1.70;;
7233;SDS011;3658;47.992;10.158;2023-07-31T11:15:43;6.10;;;2.00;;
7233;SDS011;3658;47.992;10.158;2023-07-31T11:18:11;4.30;;;1.90;;
7233;SDS011;3658;47.992;10.158;2023-07-31T11:20:38;2.03;;;1.77;;
7233;SDS011;3658;47.992;10.158;2023-07-31T11:23:07;2.30;;;1.97;;
7233;SDS011;3658;47.992;10.158;2023-07-31T11:25:35;3.50;;;2.10;;
7233;SDS011;3658;47.992;10.158;2023-07-31T11:28:03;5.27;;;1.70;;
7233;SDS011;3658;47.992;10.158;2023-07-31T11:30:31;3.50;;;1.83;;
7233;SDS011;3658;47.992;10.158;2023-07-31T11:32:59;4.10;;;1.77;;
7233;SDS011;3658;47.992;10.158;2023-07-31T11:35:29;2.33;;;1.70;;
7233;SDS011;3658;47.992;10.158;2023-07-31T11:37:57;1.93;;;1.70;;
7233;SDS011;3658;47.992;10.158;2023-07-31T11:40:23;2.00;;;1.43;;
7233;SDS011;3658;47.992;10.158;2023-07-31T11:42:54;2.50;;;1.53;;
7233;SDS011;3658;47.992;10.158;2023-07-31T11:45:24;1.70;;;1.60;;
7233;SDS011;3658;47.992;10.158;2023-07-31T11:47:51;3.53;;;1.80;;
7233;SDS011;3658;47.992;10.158;2023-07-31T11:50:19;2.00;;;1.53;;
7233;SDS011;3658;47.992;10.158;2023-07-31T11:52:48;1.70;;;1.60;;
7233;SDS011;3658;47.992;10.158;2023-07-31T11:55:17;1.60;;;1.50;;
7233;SDS011;3658;47.992;10.158;2023-07-31T11:57:44;2.03;;;1.67;;
7233;SDS011;3658;47.992;10.158;2023-07-31T12:00:12;3.53;;;2.70;;
7233;SDS011;3658;47.992;10.158;2023-07-31T12:02:39;4.47;;;2.93;;
7233;SDS011;3658;47.992;10.158;2023-07-31T12:05:09;3.50;;;2.50;;
7233;SDS011;3658;47.992;10.158;2023-07-31T12:07:44;4.63;;;3.20;;
7233;SDS011;3658;47.992;10.158;2023-07-31T12:10:22;10.50;;;2.97;;
7233;SDS011;3658;47.992;10.158;2023-07-31T12:12:59;3.97;;;2.90;;
7233;SDS011;3658;47.992;10.158;2023-07-31T12:15:38;5.63;;;2.80;;
7233;SDS011;3658;47.992;10.158;2023-07-31T12:18:06;2.87;;;2.50;;
7233;SDS011;3658;47.992;10.158;2023-07-31T12:20:39;2.57;;;2.37;;
7233;SDS011;3658;47.992;10.158;2023-07-31T12:23:13;4.57;;;2.77;;
7233;SDS011;3658;47.992;10.158;2023-07-31T12:25:41;3.53;;;2.60;;
7233;SDS011;3658;47.992;10.158;2023-07-31T12:28:08;3.53;;;3.10;;
7233;SDS011;3658;47.992;10.158;2023-07-31T12:30:37;5.43;;;3.00;;
7233;SDS011;3658;47.992;10.158;2023-07-31T12:33:06;6.63;;;3.17;;
7233;SDS011;3658;47.992;10.158;2023-07-31T12:35:37;2.60;;;2.40;;
7233;SDS011;3658;47.992;10.158;2023-07-31T12:38:06;5.40;;;2.27;;
7233;SDS011;3658;47.992;10.158;2023-07-31T12:40:35;3.00;;;2.43;;
7233;SDS011;3658;47.992;10.158;2023-07-31T12:43:03;3.20;;;2.60;;
7233;SDS011;3658;47.992;10.158;2023-07-31T12:45:30;2.87;;;2.23;;
7233;SDS011;3658;47.992;10.158;2023-07-31T12:47:58;6.83;;;2.50;;
7233;SDS011;3658;47.992;10.158;2023-07-31T12:50:25;4.93;;;2.57;;
7233;SDS011;3658;47.992;10.158;2023-07-31T12:52:52;2.67;;;2.13;;
7233;SDS011;3658;47.992;10.158;2023-07-31T12:55:19;3.37;;;2.40;;
7233;SDS011;3658;47.992;10.158;2023-07-31T12:57:48;3.07;;;2.40;;
7233;SDS011;3658;47.992;10.158;2023-07-31T13:00:15;3.53;;;2.07;;
7233;SDS011;3658;47.992;10.158;2023-07-31T13:02:42;5.70;;;2.20;;
7233;SDS011;3658;47.992;10.158;2023-07-31T13:05:08;2.60;;;2.10;;
7233;SDS011;3658;47.992;10.158;2023-07-31T13:07:35;3.90;;;2.33;;
7233;SDS011;3658;47.992;10.158;2023-07-31T13:10:03;2.43;;;2.20;;
7233;SDS011;3658;47.992;10.158;2023-07-31T13:12:31;3.70;;;2.50;;
7233;SDS011;3658;47.992;10.158;2023-07-31T13:14:59;2.43;;;2.10;;
7233;SDS011;3658;47.992;10.158;2023-07-31T13:17:26;3.80;;;2.13;;
7233;SDS011;3658;47.992;10.158;2023-07-31T13:19:53;3.07;;;2.20;;
7233;SDS011;3658;47.992;10.158;2023-07-31T13:22:19;2.00;;;1.80;;
7233;SDS011;3658;47.992;10.158;2023-07-31T13:24:46;2.13;;;1.93;;
7233;SDS011;3658;47.992;10.158;2023-07-31T13:27:13;2.20;;;1.90;;
7233;SDS011;3658;47.992;10.158;2023-07-31T13:29:41;3.77;;;2.23;;
7233;SDS011;3658;47.992;10.158;2023-07-31T13:32:10;5.17;;;2.17;;
7233;SDS011;3658;47.992;10.158;2023-07-31T13:34:37;3.80;;;2.30;;
7233;SDS011;3658;47.992;10.158;2023-07-31T13:37:04;3.27;;;2.07;;
7233;SDS011;3658;47.992;10.158;2023-07-31T13:39:34;3.07;;;2.10;;
7233;SDS011;3658;47.992;10.158;2023-07-31T13:42:03;2.40;;;2.10;;
7233;SDS011;3658;47.992;10.158;2023-07-31T13:44:31;2.70;;;2.10;;
7233;SDS011;3658;47.992;10.158;2023-07-31T13:47:01;3.70;;;2.13;;
7233;SDS011;3658;47.992;10.158;2023-07-31T13:49:29;2.73;;;1.80;;
7233;SDS011;3658;47.992;10.158;2023-07-31T13:51:56;2.37;;;1.70;;
7233;SDS011;3658;47.992;10.158;2023-07-31T13:54:26;2.40;;;1.97;;
7233;SDS011;3658;47.992;10.158;2023-07-31T13:56:53;4.53;;;2.00;;
7233;SDS011;3658;47.992;10.158;2023-07-31T13:59:23;3.00;;;2.07;;
7233;SDS011;3658;47.992;10.158;2023-07-31T14:01:50;2.63;;;2.10;;
7233;SDS011;3658;47.992;10.158;2023-07-31T14:04:17;3.40;;;2.00;;
7233;SDS011;3658;47.992;10.158;2023-07-31T14:06:45;4.63;;;2.13;;
7233;SDS011;3658;47.992;10.158;2023-07-31T14:09:13;3.90;;;2.50;;
7233;SDS011;3658;47.992;10.158;2023-07-31T14:11:40;3.37;;;2.60;;
7233;SDS011;3658;47.992;10.158;2023-07-31T14:14:10;4.60;;;2.67;;
7233;SDS011;3658;47.992;10.158;2023-07-31T14:16:37;4.70;;;2.10;;
7233;SDS011;3658;47.992;10.158;2023-07-31T14:19:04;3.83;;;2.00;;
7233;SDS011;3658;47.992;10.158;2023-07-31T14:21:32;3.30;;;1.90;;
7233;SDS011;3658;47.992;10.158;2023-07-31T14:24:00;5.20;;;2.10;;
7233;SDS011;3658;47.992;10.158;2023-07-31T14:26:27;5.07;;;1.97;;
7233;SDS011;3658;47.992;10.158;2023-07-31T14:28:55;3.37;;;2.37;;
7233;SDS011;3658;47.992;10.158;2023-07-31T14:31:22;2.67;;;2.00;;
7233;SDS011;3658;47.992;10.158;2023-07-31T14:33:49;2.20;;;1.90;;
7233;SDS011;3658;47.992;10.158;2023-07-31T14:36:15;2.97;;;2.10;;
7233;SDS011;3658;47.992;10.158;2023-07-31T14:38:42;2.47;;;1.90;;
7233;SDS011;3658;47.992;10.158;2023-07-31T14:41:10;3.60;;;2.20;;
7233;SDS011;3658;47.992;10.158;2023-07-31T14:43:37;2.20;;;1.80;;
7233;SDS011;3658;47.992;10.158;2023-07-31T14:46:04;2.10;;;1.90;;
7233;SDS011;3658;47.992;10.158;2023-07-31T14:48:31;2.00;;;1.77;;
7233;SDS011;3658;47.992;10.158;2023-07-31T14:50:58;2.90;;;2.13;;
7233;SDS011;3658;47.992;10.158;2023-07-31T14:53:25;4.90;;;1.80;;
7233;SDS011;3658;47.992;10.158;2023-07-31T14:55:51;2.47;;;1.93;;
7233;SDS011;3658;47.992;10.158;2023-07-31T14:58:21;2.77;;;1.90;;
7233;SDS011;3658;47.992;10.158;2023-07-31T15:00:49;2.30;;;1.90;;
7233;SDS011;3658;47.992;10.158;2023-07-31T15:03:16;3.17;;;1.93;;
7233;SDS011;3658;47.992;10.158;2023-07-31T15:05:43;2.20;;;2.00;;
7233;SDS011;3658;47.992;10.158;2023-07-31T15:08:12;2.37;;;1.90;;
7233;SDS011;3658;47.992;10.158;2023-07-31T15:10:38;3.07;;;1.83;;